TimeCDT,TemperatureF,Dew PointF,Humidity,Sea Level PressureIn,VisibilityMPH,Wind Direction,Wind SpeedMPH,Gust SpeedMPH,PrecipitationIn,Events,Conditions,WindDirDegrees,DateUTC
12:53 AM,57.9,39.9,51,29.84,10.0,SSW,11.5,-,N/A,,Clear,200,2014-04-01 05:53:00
1:53 AM,57.0,42.1,57,29.84,10.0,SSW,11.5,20.7,N/A,,Partly Cloudy,210,2014-04-01 06:53:00
2:53 AM,55.9,44.1,64,29.83,10.0,SSW,11.5,19.6,N/A,,Scattered Clouds,210,2014-04-01 07:53:00
3:53 AM,54.0,44.1,69,29.82,10.0,SSW,11.5,-,N/A,,Clear,210,2014-04-01 08:53:00
4:53 AM,54.0,43.0,66,29.83,10.0,WSW,9.2,20.7,N/A,,Clear,240,2014-04-01 09:53:00
5:53 AM,48.0,37.9,68,29.88,10.0,West,12.7,-,N/A,,Clear,270,2014-04-01 10:53:00
6:53 AM,46.0,30.9,56,29.92,10.0,West,17.3,24.2,N/A,,Clear,260,2014-04-01 11:53:00
7:53 AM,43.0,30.9,62,29.96,10.0,West,15.0,24.2,N/A,,Clear,280,2014-04-01 12:53:00
8:53 AM,43.0,27.0,53,30.00,10.0,West,15.0,23.0,N/A,,Clear,270,2014-04-01 13:53:00
9:53 AM,44.1,25.0,47,30.01,10.0,West,15.0,25.3,N/A,,Clear,270,2014-04-01 14:53:00
10:53 AM,46.0,27.0,47,30.03,10.0,WSW,15.0,24.2,N/A,,Clear,250,2014-04-01 15:53:00
11:01 AM,46.9,27.0,46,30.03,1.8,West,16.1,20.7,N/A,,Haze,270,2014-04-01 16:01:00
11:16 AM,48.0,27.0,44,30.03,10.0,West,17.3,25.3,N/A,,Clear,260,2014-04-01 16:16:00
11:53 AM,48.9,28.0,44,30.04,10.0,WSW,11.5,24.2,N/A,,Clear,250,2014-04-01 16:53:00
12:53 PM,52.0,30.0,43,30.04,10.0,SW,11.5,20.7,N/A,,Clear,230,2014-04-01 17:53:00
1:53 PM,55.0,30.9,40,30.04,10.0,West,10.4,21.9,N/A,,Clear,260,2014-04-01 18:53:00
2:53 PM,57.0,30.9,37,30.03,10.0,WNW,17.3,27.6,N/A,,Clear,290,2014-04-01 19:53:00
3:53 PM,57.0,32.0,39,30.02,10.0,West,17.3,21.9,N/A,,Clear,280,2014-04-01 20:53:00
4:53 PM,57.9,30.9,36,30.01,10.0,NW,6.9,-,N/A,,Clear,320,2014-04-01 21:53:00
5:53 PM,55.9,32.0,40,30.05,10.0,West,6.9,-,N/A,,Mostly Cloudy,270,2014-04-01 22:53:00
6:53 PM,54.0,32.0,43,30.07,10.0,West,4.6,-,N/A,,Mostly Cloudy,270,2014-04-01 23:53:00
7:53 PM,52.0,34.0,50,30.08,10.0,Calm,Calm,-,N/A,,Overcast,0,2014-04-02 00:53:00
8:53 PM,48.9,39.9,71,30.07,8.0,North,5.8,-,0.00,Rain,Light Rain,360,2014-04-02 01:53:00
9:53 PM,48.9,39.9,71,30.06,7.0,NNE,3.5,-,0.00,Rain,Rain,20,2014-04-02 02:53:00
10:53 PM,46.0,42.1,86,30.06,5.0,NNE,9.2,-,0.02,Rain,Light Rain,20,2014-04-02 03:53:00
11:48 PM,44.6,41.0,87,30.08,2.5,Calm,Calm,-,0.13,Rain,Heavy Rain,0,2014-04-02 04:48:00
11:53 PM,44.1,41.0,89,30.11,4.0,North,3.5,-,0.13,Rain,Rain,350,2014-04-02 04:53:00